sensor_id;sensor_type;location;lat;lon;timestamp;P1;durP1;ratioP1;P2;durP2;ratioP2
55224;SDS011;41091;49.400;8.684;2022-10-22T00:00:26;1.52;;;1.35;;
55224;SDS011;41091;49.400;8.684;2022-10-22T00:02:51;2.72;;;1.15;;
55224;SDS011;41091;49.400;8.684;2022-10-22T00:05:16;3.55;;;0.80;;
55224;SDS011;41091;49.400;8.684;2022-10-22T00:07:42;4.93;;;0.93;;
55224;SDS011;41091;49.400;8.684;2022-10-22T00:10:07;0.93;;;0.70;;
55224;SDS011;41091;49.400;8.684;2022-10-22T00:12:35;5.90;;;1.25;;
55224;SDS011;41091;49.400;8.684;2022-10-22T00:15:03;2.08;;;0.98;;
55224;SDS011;41091;49.400;8.684;2022-10-22T00:17:31;1.13;;;0.70;;
55224;SDS011;41091;49.400;8.684;2022-10-22T00:19:56;2.55;;;0.63;;
55224;SDS011;41091;49.400;8.684;2022-10-22T00:22:22;1.23;;;0.80;;
55224;SDS011;41091;49.400;8.684;2022-10-22T00:24:49;3.88;;;0.80;;
55224;SDS011;41091;49.400;8.684;2022-10-22T00:27:15;3.03;;;0.77;;
55224;SDS011;41091;49.400;8.684;2022-10-22T00:29:43;1.23;;;0.73;;
55224;SDS011;41091;49.400;8.684;2022-10-22T00:32:08;1.23;;;0.90;;
55224;SDS011;41091;49.400;8.684;2022-10-22T00:34:33;1.33;;;0.70;;
55224;SDS011;41091;49.400;8.684;2022-10-22T00:37:01;4.68;;;0.82;;
55224;SDS011;41091;49.400;8.684;2022-10-22T00:39:27;2.97;;;1.50;;
55224;SDS011;41091;49.400;8.684;2022-10-22T00:41:55;1.33;;;0.47;;
55224;SDS011;41091;49.400;8.684;2022-10-22T00:47:24;3.75;;;0.77;;
55224;SDS011;41091;49.400;8.684;2022-10-22T00:49:52;0.70;;;0.70;;
55224;SDS011;41091;49.400;8.684;2022-10-22T00:52:18;2.20;;;0.68;;
55224;SDS011;41091;49.400;8.684;2022-10-22T00:54:43;2.42;;;1.00;;
55224;SDS011;41091;49.400;8.684;2022-10-22T00:57:09;2.50;;;0.88;;
55224;SDS011;41091;49.400;8.684;2022-10-22T00:59:35;1.40;;;0.85;;
55224;SDS011;41091;49.400;8.684;2022-10-22T01:02:03;0.55;;;0.50;;
55224;SDS011;41091;49.400;8.684;2022-10-22T01:04:31;1.85;;;0.90;;
55224;SDS011;41091;49.400;8.684;2022-10-22T01:06:56;1.58;;;0.73;;
55224;SDS011;41091;49.400;8.684;2022-10-22T01:12:33;8.02;;;1.05;;
55224;SDS011;41091;49.400;8.684;2022-10-22T01:18:02;5.75;;;0.55;;
55224;SDS011;41091;49.400;8.684;2022-10-22T01:20:37;0.30;;;0.30;;
55224;SDS011;41091;49.400;8.684;2022-10-22T01:23:21;2.95;;;0.60;;
55224;SDS011;41091;49.400;8.684;2022-10-22T01:31:51;3.45;;;0.40;;
55224;SDS011;41091;49.400;8.684;2022-10-22T01:34:23;2.08;;;0.30;;
55224;SDS011;41091;49.400;8.684;2022-10-22T01:36:50;1.25;;;0.47;;
55224;SDS011;41091;49.400;8.684;2022-10-22T01:39:17;1.80;;;0.40;;
55224;SDS011;41091;49.400;8.684;2022-10-22T01:41:45;0.47;;;0.35;;
55224;SDS011;41091;49.400;8.684;2022-10-22T01:58:45;1.65;;;0.40;;
55224;SDS011;41091;49.400;8.684;2022-10-22T02:01:14;5.82;;;0.50;;
55224;SDS011;41091;49.400;8.684;2022-10-22T02:03:49;2.88;;;0.50;;
55224;SDS011;41091;49.400;8.684;2022-10-22T02:06:21;0.63;;;0.60;;
55224;SDS011;41091;49.400;8.684;2022-10-22T02:08:47;2.00;;;0.47;;
55224;SDS011;41091;49.400;8.684;2022-10-22T02:11:14;2.58;;;0.80;;
55224;SDS011;41091;49.400;8.684;2022-10-22T02:13:41;3.03;;;0.70;;
55224;SDS011;41091;49.400;8.684;2022-10-22T02:16:11;0.70;;;0.50;;
55224;SDS011;41091;49.400;8.684;2022-10-22T02:18:40;0.28;;;0.28;;
55224;SDS011;41091;49.400;8.684;2022-10-22T02:21:09;2.08;;;0.40;;
55224;SDS011;41091;49.400;8.684;2022-10-22T02:23:37;2.05;;;0.85;;
55224;SDS011;41091;49.400;8.684;2022-10-22T02:26:06;2.38;;;0.50;;
55224;SDS011;41091;49.400;8.684;2022-10-22T02:28:51;0.30;;;0.30;;
55224;SDS011;41091;49.400;8.684;2022-10-22T02:31:23;5.15;;;0.75;;
55224;SDS011;41091;49.400;8.684;2022-10-22T02:33:53;1.40;;;1.10;;
55224;SDS011;41091;49.400;8.684;2022-10-22T02:36:23;3.90;;;0.35;;
55224;SDS011;41091;49.400;8.684;2022-10-22T02:38:48;1.85;;;0.93;;
55224;SDS011;41091;49.400;8.684;2022-10-22T02:41:15;6.10;;;0.55;;
55224;SDS011;41091;49.400;8.684;2022-10-22T02:43:47;0.75;;;0.30;;
55224;SDS011;41091;49.400;8.684;2022-10-22T02:46:14;1.63;;;0.30;;
55224;SDS011;41091;49.400;8.684;2022-10-22T02:48:39;1.63;;;0.60;;
55224;SDS011;41091;49.400;8.684;2022-10-22T02:51:05;3.85;;;0.38;;
55224;SDS011;41091;49.400;8.684;2022-10-22T02:53:30;1.05;;;0.40;;
55224;SDS011;41091;49.400;8.684;2022-10-22T02:55:56;2.25;;;0.30;;
55224;SDS011;41091;49.400;8.684;2022-10-22T02:58:21;2.83;;;0.40;;
55224;SDS011;41091;49.400;8.684;2022-10-22T03:00:49;6.85;;;0.45;;
55224;SDS011;41091;49.400;8.684;2022-10-22T03:03:15;2.65;;;0.40;;
55224;SDS011;41091;49.400;8.684;2022-10-22T03:05:40;1.25;;;0.45;;
55224;SDS011;41091;49.400;8.684;2022-10-22T03:08:07;0.30;;;0.30;;
55224;SDS011;41091;49.400;8.684;2022-10-22T03:10:33;1.80;;;0.60;;
55224;SDS011;41091;49.400;8.684;2022-10-22T03:13:00;0.20;;;0.20;;
55224;SDS011;41091;49.400;8.684;2022-10-22T03:15:26;1.00;;;0.20;;
55224;SDS011;41091;49.400;8.684;2022-10-22T03:17:51;4.80;;;0.50;;
55224;SDS011;41091;49.400;8.684;2022-10-22T03:20:16;0.30;;;0.30;;
55224;SDS011;41091;49.400;8.684;2022-10-22T03:22:41;3.20;;;0.30;;
55224;SDS011;41091;49.400;8.684;2022-10-22T03:25:09;0.30;;;0.30;;
55224;SDS011;41091;49.400;8.684;2022-10-22T03:27:39;0.47;;;0.22;;
55224;SDS011;41091;49.400;8.684;2022-10-22T03:30:05;0.65;;;0.30;;
55224;SDS011;41091;49.400;8.684;2022-10-22T03:32:31;2.13;;;0.30;;
55224;SDS011;41091;49.400;8.684;2022-10-22T03:35:02;0.30;;;0.30;;
55224;SDS011;41091;49.400;8.684;2022-10-22T03:37:29;0.63;;;0.30;;
55224;SDS011;41091;49.400;8.684;2022-10-22T03:39:55;0.40;;;0.40;;
55224;SDS011;41091;49.400;8.684;2022-10-22T03:42:20;2.08;;;0.35;;
55224;SDS011;41091;49.400;8.684;2022-10-22T03:44:46;0.20;;;0.20;;
55224;SDS011;41091;49.400;8.684;2022-10-22T03:47:11;2.28;;;0.30;;
55224;SDS011;41091;49.400;8.684;2022-10-22T03:49:40;0.77;;;0.50;;
55224;SDS011;41091;49.400;8.684;2022-10-22T03:52:10;1.52;;;0.40;;
55224;SDS011;41091;49.400;8.684;2022-10-22T03:54:36;2.45;;;0.68;;
55224;SDS011;41091;49.400;8.684;2022-10-22T03:57:04;2.75;;;0.85;;
55224;SDS011;41091;49.400;8.684;2022-10-22T03:59:37;0.40;;;0.30;;
55224;SDS011;41091;49.400;8.684;2022-10-22T04:02:04;0.47;;;0.20;;
55224;SDS011;41091;49.400;8.684;2022-10-22T04:04:32;6.13;;;0.47;;
55224;SDS011;41091;49.400;8.684;2022-10-22T04:07:00;5.45;;;0.50;;
55224;SDS011;41091;49.400;8.684;2022-10-22T04:09:25;1.25;;;0.30;;
55224;SDS011;41091;49.400;8.684;2022-10-22T04:11:50;0.60;;;0.40;;
55224;SDS011;41091;49.400;8.684;2022-10-22T04:14:16;0.82;;;0.40;;
55224;SDS011;41091;49.400;8.684;2022-10-22T04:16:41;2.00;;;0.45;;
55224;SDS011;41091;49.400;8.684;2022-10-22T04:19:07;0.85;;;0.30;;
55224;SDS011;41091;49.400;8.684;2022-10-22T04:21:33;5.05;;;0.40;;
55224;SDS011;41091;49.400;8.684;2022-10-22T04:24:01;1.48;;;0.32;;
55224;SDS011;41091;49.400;8.684;2022-10-22T04:26:26;1.13;;;0.40;;
55224;SDS011;41091;49.400;8.684;2022-10-22T04:28:52;1.23;;;0.70;;
55224;SDS011;41091;49.400;8.684;2022-10-22T04:31:18;0.30;;;0.30;;
55224;SDS011;41091;49.400;8.684;2022-10-22T04:33:45;3.30;;;0.55;;
55224;SDS011;41091;49.400;8.684;2022-10-22T04:36:17;1.63;;;0.30;;
55224;SDS011;41091;49.400;8.684;2022-10-22T04:38:46;1.00;;;0.40;;
55224;SDS011;41091;49.400;8.684;2022-10-22T04:41:16;0.60;;;0.60;;
55224;SDS011;41091;49.400;8.684;2022-10-22T04:43:42;2.25;;;0.40;;
55224;SDS011;41091;49.400;8.684;2022-10-22T04:46:08;4.68;;;0.50;;
55224;SDS011;41091;49.400;8.684;2022-10-22T04:48:39;0.50;;;0.50;;
55224;SDS011;41091;49.400;8.684;2022-10-22T04:51:05;3.15;;;0.43;;
55224;SDS011;41091;49.400;8.684;2022-10-22T04:53:33;5.35;;;0.55;;
55224;SDS011;41091;49.400;8.684;2022-10-22T04:56:06;0.55;;;0.55;;
55224;SDS011;41091;49.400;8.684;2022-10-22T04:58:36;2.05;;;0.70;;
55224;SDS011;41091;49.400;8.684;2022-10-22T05:01:13;0.52;;;0.30;;
55224;SDS011;41091;49.400;8.684;2022-10-22T05:03:47;1.17;;;0.70;;
55224;SDS011;41091;49.400;8.684;2022-10-22T05:06:13;2.15;;;0.55;;
55224;SDS011;41091;49.400;8.684;2022-10-22T05:08:41;4.38;;;0.73;;
55224;SDS011;41091;49.400;8.684;2022-10-22T05:11:14;0.65;;;0.40;;
55224;SDS011;41091;49.400;8.684;2022-10-22T05:13:41;2.78;;;0.70;;
55224;SDS011;41091;49.400;8.684;2022-10-22T05:16:06;2.38;;;0.60;;
55224;SDS011;41091;49.400;8.684;2022-10-22T05:18:33;1.10;;;0.60;;
55224;SDS011;41091;49.400;8.684;2022-10-22T05:21:02;0.50;;;0.40;;
55224;SDS011;41091;49.400;8.684;2022-10-22T05:26:00;0.50;;;0.50;;
55224;SDS011;41091;49.400;8.684;2022-10-22T05:28:26;3.63;;;1.27;;
55224;SDS011;41091;49.400;8.684;2022-10-22T05:30:55;0.47;;;0.40;;
55224;SDS011;41091;49.400;8.684;2022-10-22T05:33:24;0.50;;;0.30;;
55224;SDS011;41091;49.400;8.684;2022-10-22T05:35:50;0.45;;;0.40;;
55224;SDS011;41091;49.400;8.684;2022-10-22T05:38:16;0.80;;;0.40;;
55224;SDS011;41091;49.400;8.684;2022-10-22T05:40:42;0.40;;;0.40;;
55224;SDS011;41091;49.400;8.684;2022-10-22T05:43:09;0.40;;;0.40;;
55224;SDS011;41091;49.400;8.684;2022-10-22T05:45:38;2.17;;;0.43;;
55224;SDS011;41091;49.400;8.684;2022-10-22T05:48:07;0.50;;;0.50;;
55224;SDS011;41091;49.400;8.684;2022-10-22T05:50:36;0.40;;;0.40;;
55224;SDS011;41091;49.400;8.684;2022-10-22T05:53:02;0.52;;;0.52;;
55224;SDS011;41091;49.400;8.684;2022-10-22T05:55:28;2.17;;;0.60;;
55224;SDS011;41091;49.400;8.684;2022-10-22T05:57:53;1.90;;;0.60;;
55224;SDS011;41091;49.400;8.684;2022-10-22T06:00:19;2.13;;;0.85;;
55224;SDS011;41091;49.400;8.684;2022-10-22T06:02:47;1.35;;;0.50;;
55224;SDS011;41091;49.400;8.684;2022-10-22T06:05:13;1.88;;;0.68;;
55224;SDS011;41091;49.400;8.684;2022-10-22T06:07:39;0.30;;;0.30;;
55224;SDS011;41091;49.400;8.684;2022-10-22T06:10:08;1.50;;;0.60;;
55224;SDS011;41091;49.400;8.684;2022-10-22T06:12:38;0.38;;;0.38;;
55224;SDS011;41091;49.400;8.684;2022-10-22T06:15:04;2.75;;;0.50;;
55224;SDS011;41091;49.400;8.684;2022-10-22T06:17:29;0.50;;;0.50;;
55224;SDS011;41091;49.400;8.684;2022-10-22T06:19:58;1.55;;;0.50;;
55224;SDS011;41091;49.400;8.684;2022-10-22T06:22:23;2.08;;;0.55;;
55224;SDS011;41091;49.400;8.684;2022-10-22T06:24:51;0.40;;;0.40;;
55224;SDS011;41091;49.400;8.684;2022-10-22T06:27:16;0.55;;;0.55;;
55224;SDS011;41091;49.400;8.684;2022-10-22T06:29:41;3.13;;;0.40;;
55224;SDS011;41091;49.400;8.684;2022-10-22T06:32:07;1.08;;;0.82;;
55224;SDS011;41091;49.400;8.684;2022-10-22T06:34:32;0.80;;;0.47;;
55224;SDS011;41091;49.400;8.684;2022-10-22T06:36:57;0.40;;;0.38;;
55224;SDS011;41091;49.400;8.684;2022-10-22T06:39:23;3.63;;;0.80;;
55224;SDS011;41091;49.400;8.684;2022-10-22T06:41:48;0.30;;;0.30;;
55224;SDS011;41091;49.400;8.684;2022-10-22T06:44:14;0.47;;;0.30;;
55224;SDS011;41091;49.400;8.684;2022-10-22T06:46:42;0.57;;;0.50;;
55224;SDS011;41091;49.400;8.684;2022-10-22T06:49:09;0.57;;;0.57;;
55224;SDS011;41091;49.400;8.684;2022-10-22T06:51:38;1.08;;;0.98;;
55224;SDS011;41091;49.400;8.684;2022-10-22T06:54:04;0.88;;;0.40;;
55224;SDS011;41091;49.400;8.684;2022-10-22T06:56:29;0.40;;;0.40;;
55224;SDS011;41091;49.400;8.684;2022-10-22T06:58:56;0.50;;;0.50;;
55224;SDS011;41091;49.400;8.684;2022-10-22T07:01:23;6.72;;;0.55;;
55224;SDS011;41091;49.400;8.684;2022-10-22T07:06:20;0.38;;;0.38;;
55224;SDS011;41091;49.400;8.684;2022-10-22T07:08:46;0.63;;;0.50;;
55224;SDS011;41091;49.400;8.684;2022-10-22T07:13:41;3.53;;;0.52;;
55224;SDS011;41091;49.400;8.684;2022-10-22T07:16:07;2.90;;;0.70;;
55224;SDS011;41091;49.400;8.684;2022-10-22T07:18:33;0.70;;;0.70;;
55224;SDS011;41091;49.400;8.684;2022-10-22T07:21:02;4.68;;;0.80;;
55224;SDS011;41091;49.400;8.684;2022-10-22T07:23:28;5.95;;;0.80;;
55224;SDS011;41091;49.400;8.684;2022-10-22T07:25:53;1.30;;;0.70;;
55224;SDS011;41091;49.400;8.684;2022-10-22T07:28:19;4.60;;;0.55;;
55224;SDS011;41091;49.400;8.684;2022-10-22T07:30:44;3.22;;;0.63;;
55224;SDS011;41091;49.400;8.684;2022-10-22T07:33:10;1.45;;;0.40;;
55224;SDS011;41091;49.400;8.684;2022-10-22T07:35:39;0.95;;;0.93;;
55224;SDS011;41091;49.400;8.684;2022-10-22T07:38:05;1.95;;;0.60;;
55224;SDS011;41091;49.400;8.684;2022-10-22T07:40:33;6.03;;;0.68;;
55224;SDS011;41091;49.400;8.684;2022-10-22T07:43:01;0.88;;;0.68;;
55224;SDS011;41091;49.400;8.684;2022-10-22T07:45:27;0.52;;;0.50;;
55224;SDS011;41091;49.400;8.684;2022-10-22T07:47:55;0.93;;;0.65;;
55224;SDS011;41091;49.400;8.684;2022-10-22T07:50:24;0.50;;;0.47;;
55224;SDS011;41091;49.400;8.684;2022-10-22T07:52:50;1.63;;;0.35;;
55224;SDS011;41091;49.400;8.684;2022-10-22T07:55:15;0.35;;;0.35;;
55224;SDS011;41091;49.400;8.684;2022-10-22T07:57:41;4.05;;;0.40;;
55224;SDS011;41091;49.400;8.684;2022-10-22T08:00:11;1.40;;;0.40;;
55224;SDS011;41091;49.400;8.684;2022-10-22T08:02:37;0.88;;;0.40;;
55224;SDS011;41091;49.400;8.684;2022-10-22T08:05:04;1.45;;;0.50;;
55224;SDS011;41091;49.400;8.684;2022-10-22T08:07:30;0.52;;;0.32;;
55224;SDS011;41091;49.400;8.684;2022-10-22T08:09:57;1.40;;;0.50;;
55224;SDS011;41091;49.400;8.684;2022-10-22T08:12:23;1.35;;;0.70;;
55224;SDS011;41091;49.400;8.684;2022-10-22T08:14:48;1.88;;;0.80;;
55224;SDS011;41091;49.400;8.684;2022-10-22T08:17:16;2.08;;;0.80;;
55224;SDS011;41091;49.400;8.684;2022-10-22T08:19:41;0.70;;;0.63;;
55224;SDS011;41091;49.400;8.684;2022-10-22T08:22:06;2.10;;;0.70;;
55224;SDS011;41091;49.400;8.684;2022-10-22T08:24:32;0.40;;;0.38;;
55224;SDS011;41091;49.400;8.684;2022-10-22T08:26:57;2.47;;;0.40;;
55224;SDS011;41091;49.400;8.684;2022-10-22T08:29:25;0.85;;;0.40;;
55224;SDS011;41091;49.400;8.684;2022-10-22T08:31:50;2.55;;;0.40;;
55224;SDS011;41091;49.400;8.684;2022-10-22T08:34:19;0.47;;;0.47;;
55224;SDS011;41091;49.400;8.684;2022-10-22T08:36:45;2.28;;;0.35;;
55224;SDS011;41091;49.400;8.684;2022-10-22T08:39:13;0.68;;;0.40;;
55224;SDS011;41091;49.400;8.684;2022-10-22T08:41:44;0.35;;;0.32;;
55224;SDS011;41091;49.400;8.684;2022-10-22T08:50:00;0.98;;;0.40;;
55224;SDS011;41091;49.400;8.684;2022-10-22T08:52:26;0.50;;;0.50;;
55224;SDS011;41091;49.400;8.684;2022-10-22T08:54:55;0.80;;;0.60;;
55224;SDS011;41091;49.400;8.684;2022-10-22T09:02:42;2.30;;;0.50;;
55224;SDS011;41091;49.400;8.684;2022-10-22T09:07:43;1.38;;;0.80;;
55224;SDS011;41091;49.400;8.684;2022-10-22T09:10:14;1.75;;;0.40;;
55224;SDS011;41091;49.400;8.684;2022-10-22T09:12:40;6.05;;;0.85;;
55224;SDS011;41091;49.400;8.684;2022-10-22T09:15:05;6.78;;;0.60;;
55224;SDS011;41091;49.400;8.684;2022-10-22T09:17:44;5.32;;;0.40;;
55224;SDS011;41091;49.400;8.684;2022-10-22T09:20:27;1.60;;;0.40;;
55224;SDS011;41091;49.400;8.684;2022-10-22T09:23:38;0.30;;;0.30;;
55224;SDS011;41091;49.400;8.684;2022-10-22T09:25:47;0.40;;;0.40;;
55224;SDS011;41091;49.400;8.684;2022-10-22T09:28:13;0.43;;;0.43;;
55224;SDS011;41091;49.400;8.684;2022-10-22T09:30:42;3.17;;;1.40;;
55224;SDS011;41091;49.400;8.684;2022-10-22T09:35:59;5.25;;;0.30;;
55224;SDS011;41091;49.400;8.684;2022-10-22T09:38:31;0.77;;;0.35;;
55224;SDS011;41091;49.400;8.684;2022-10-22T09:40:59;2.55;;;0.63;;
55224;SDS011;41091;49.400;8.684;2022-10-22T09:43:27;0.28;;;0.28;;
55224;SDS011;41091;49.400;8.684;2022-10-22T09:46:00;1.25;;;0.60;;
55224;SDS011;41091;49.400;8.684;2022-10-22T09:48:31;0.30;;;0.30;;
55224;SDS011;41091;49.400;8.684;2022-10-22T09:53:37;0.55;;;0.30;;
55224;SDS011;41091;49.400;8.684;2022-10-22T09:56:16;5.35;;;0.77;;
55224;SDS011;41091;49.400;8.684;2022-10-22T09:58:48;2.60;;;0.40;;
55224;SDS011;41091;49.400;8.684;2022-10-22T10:01:18;0.35;;;0.30;;
55224;SDS011;41091;49.400;8.684;2022-10-22T10:03:51;0.65;;;0.50;;
55224;SDS011;41091;49.400;8.684;2022-10-22T10:06:20;1.38;;;0.30;;
55224;SDS011;41091;49.400;8.684;2022-10-22T10:08:47;0.30;;;0.30;;
55224;SDS011;41091;49.400;8.684;2022-10-22T10:11:25;0.30;;;0.30;;
55224;SDS011;41091;49.400;8.684;2022-10-22T10:13:57;0.40;;;0.40;;
55224;SDS011;41091;49.400;8.684;2022-10-22T10:27:38;1.70;;;0.40;;
55224;SDS011;41091;49.400;8.684;2022-10-22T10:30:15;1.15;;;0.40;;
55224;SDS011;41091;49.400;8.684;2022-10-22T10:46:43;4.70;;;0.70;;
55224;SDS011;41091;49.400;8.684;2022-10-22T10:54:45;2.50;;;0.20;;
55224;SDS011;41091;49.400;8.684;2022-10-22T11:08:06;0.32;;;0.30;;
55224;SDS011;41091;49.400;8.684;2022-10-22T11:16:22;1.38;;;0.40;;
55224;SDS011;41091;49.400;8.684;2022-10-22T11:21:26;1.58;;;0.30;;
55224;SDS011;41091;49.400;8.684;2022-10-22T11:24:01;4.20;;;0.70;;
55224;SDS011;41091;49.400;8.684;2022-10-22T11:29:10;2.33;;;0.35;;
55224;SDS011;41091;49.400;8.684;2022-10-22T11:31:37;7.63;;;0.80;;
55224;SDS011;41091;49.400;8.684;2022-10-22T11:34:21;4.70;;;0.52;;
55224;SDS011;41091;49.400;8.684;2022-10-22T11:36:49;0.75;;;0.40;;
55224;SDS011;41091;49.400;8.684;2022-10-22T11:39:37;1.15;;;0.40;;
55224;SDS011;41091;49.400;8.684;2022-10-22T11:42:21;5.47;;;0.60;;
55224;SDS011;41091;49.400;8.684;2022-10-22T11:47:25;1.33;;;0.47;;
55224;SDS011;41091;49.400;8.684;2022-10-22T11:49:54;1.70;;;0.68;;
55224;SDS011;41091;49.400;8.684;2022-10-22T11:52:26;6.68;;;0.70;;
55224;SDS011;41091;49.400;8.684;2022-10-22T11:55:09;2.58;;;0.45;;
55224;SDS011;41091;49.400;8.684;2022-10-22T12:00:54;2.72;;;0.63;;
55224;SDS011;41091;49.400;8.684;2022-10-22T12:06:20;0.98;;;0.82;;
55224;SDS011;41091;49.400;8.684;2022-10-22T12:19:00;0.60;;;0.60;;
55224;SDS011;41091;49.400;8.684;2022-10-22T12:21:27;2.13;;;0.40;;
55224;SDS011;41091;49.400;8.684;2022-10-22T12:23:55;1.98;;;0.40;;
55224;SDS011;41091;49.400;8.684;2022-10-22T12:26:29;0.70;;;0.60;;
55224;SDS011;41091;49.400;8.684;2022-10-22T12:28:58;1.20;;;0.88;;
55224;SDS011;41091;49.400;8.684;2022-10-22T12:31:27;4.18;;;0.63;;
55224;SDS011;41091;49.400;8.684;2022-10-22T12:34:03;0.75;;;0.60;;
55224;SDS011;41091;49.400;8.684;2022-10-22T12:36:29;4.72;;;0.60;;
55224;SDS011;41091;49.400;8.684;2022-10-22T12:39:01;3.28;;;0.93;;
55224;SDS011;41091;49.400;8.684;2022-10-22T12:41:32;3.78;;;1.05;;
55224;SDS011;41091;49.400;8.684;2022-10-22T12:44:01;3.25;;;0.73;;
55224;SDS011;41091;49.400;8.684;2022-10-22T12:46:27;14.00;;;1.38;;
55224;SDS011;41091;49.400;8.684;2022-10-22T12:48:57;4.28;;;1.15;;
55224;SDS011;41091;49.400;8.684;2022-10-22T12:51:23;4.88;;;0.80;;
55224;SDS011;41091;49.400;8.684;2022-10-22T12:53:53;8.23;;;1.23;;
55224;SDS011;41091;49.400;8.684;2022-10-22T12:56:21;3.10;;;0.60;;
55224;SDS011;41091;49.400;8.684;2022-10-22T12:58:50;3.20;;;1.75;;
55224;SDS011;41091;49.400;8.684;2022-10-22T13:01:16;3.03;;;0.85;;
55224;SDS011;41091;49.400;8.684;2022-10-22T13:08:42;1.73;;;0.40;;
55224;SDS011;41091;49.400;8.684;2022-10-22T13:11:10;1.13;;;0.52;;
55224;SDS011;41091;49.400;8.684;2022-10-22T13:18:57;1.00;;;0.73;;
55224;SDS011;41091;49.400;8.684;2022-10-22T13:21:36;4.15;;;0.70;;
55224;SDS011;41091;49.400;8.684;2022-10-22T13:24:17;2.88;;;0.63;;
55224;SDS011;41091;49.400;8.684;2022-10-22T13:26:46;3.25;;;0.77;;
55224;SDS011;41091;49.400;8.684;2022-10-22T13:29:17;6.63;;;0.60;;
55224;SDS011;41091;49.400;8.684;2022-10-22T13:31:47;2.30;;;0.70;;
55224;SDS011;41091;49.400;8.684;2022-10-22T13:36:43;1.43;;;0.40;;
55224;SDS011;41091;49.400;8.684;2022-10-22T13:39:12;5.85;;;1.33;;
55224;SDS011;41091;49.400;8.684;2022-10-22T13:41:41;3.47;;;0.90;;
55224;SDS011;41091;49.400;8.684;2022-10-22T13:44:09;3.15;;;0.70;;
55224;SDS011;41091;49.400;8.684;2022-10-22T13:46:37;1.55;;;0.50;;
55224;SDS011;41091;49.400;8.684;2022-10-22T13:49:08;2.47;;;0.50;;
55224;SDS011;41091;49.400;8.684;2022-10-22T13:51:38;1.73;;;0.55;;
55224;SDS011;41091;49.400;8.684;2022-10-22T13:54:05;3.08;;;0.60;;
55224;SDS011;41091;49.400;8.684;2022-10-22T13:56:38;1.70;;;0.55;;
55224;SDS011;41091;49.400;8.684;2022-10-22T13:59:06;6.18;;;0.60;;
55224;SDS011;41091;49.400;8.684;2022-10-22T14:01:33;3.40;;;0.45;;
55224;SDS011;41091;49.400;8.684;2022-10-22T14:03:58;3.55;;;0.55;;
55224;SDS011;41091;49.400;8.684;2022-10-22T14:06:26;2.05;;;0.60;;
55224;SDS011;41091;49.400;8.684;2022-10-22T14:09:01;1.30;;;0.50;;
55224;SDS011;41091;49.400;8.684;2022-10-22T14:11:30;3.95;;;0.90;;
55224;SDS011;41091;49.400;8.684;2022-10-22T14:13:56;1.38;;;0.55;;
55224;SDS011;41091;49.400;8.684;2022-10-22T14:16:22;1.45;;;0.60;;
55224;SDS011;41091;49.400;8.684;2022-10-22T14:18:51;4.32;;;0.70;;
55224;SDS011;41091;49.400;8.684;2022-10-22T14:21:17;2.00;;;0.80;;
55224;SDS011;41091;49.400;8.684;2022-10-22T14:23:43;12.25;;;0.98;;
55224;SDS011;41091;49.400;8.684;2022-10-22T14:26:25;1.58;;;0.52;;
55224;SDS011;41091;49.400;8.684;2022-10-22T14:28:57;3.08;;;0.85;;
55224;SDS011;41091;49.400;8.684;2022-10-22T14:31:23;1.48;;;0.70;;
55224;SDS011;41091;49.400;8.684;2022-10-22T14:33:48;3.72;;;1.88;;
55224;SDS011;41091;49.400;8.684;2022-10-22T14:36:15;1.55;;;0.70;;
55224;SDS011;41091;49.400;8.684;2022-10-22T14:38:42;3.67;;;0.60;;
55224;SDS011;41091;49.400;8.684;2022-10-22T14:41:19;1.02;;;0.60;;
55224;SDS011;41091;49.400;8.684;2022-10-22T14:43:48;1.90;;;0.90;;
55224;SDS011;41091;49.400;8.684;2022-10-22T14:46:17;6.72;;;0.82;;
55224;SDS011;41091;49.400;8.684;2022-10-22T14:48:43;6.35;;;1.88;;
55224;SDS011;41091;49.400;8.684;2022-10-22T14:51:10;5.90;;;1.98;;
55224;SDS011;41091;49.400;8.684;2022-10-22T14:53:39;5.75;;;1.27;;
55224;SDS011;41091;49.400;8.684;2022-10-22T14:56:05;2.80;;;1.10;;
55224;SDS011;41091;49.400;8.684;2022-10-22T14:58:33;3.80;;;0.68;;
55224;SDS011;41091;49.400;8.684;2022-10-22T15:01:00;2.50;;;0.75;;
55224;SDS011;41091;49.400;8.684;2022-10-22T15:03:26;2.15;;;0.82;;
55224;SDS011;41091;49.400;8.684;2022-10-22T15:05:55;3.83;;;0.85;;
55224;SDS011;41091;49.400;8.684;2022-10-22T15:08:20;7.45;;;0.77;;
55224;SDS011;41091;49.400;8.684;2022-10-22T15:10:55;6.53;;;0.98;;
55224;SDS011;41091;49.400;8.684;2022-10-22T15:13:21;5.68;;;0.63;;
55224;SDS011;41091;49.400;8.684;2022-10-22T15:15:47;6.75;;;0.93;;
55224;SDS011;41091;49.400;8.684;2022-10-22T15:18:12;0.88;;;0.88;;
55224;SDS011;41091;49.400;8.684;2022-10-22T15:20:40;3.85;;;0.93;;
55224;SDS011;41091;49.400;8.684;2022-10-22T15:23:05;2.95;;;1.33;;
55224;SDS011;41091;49.400;8.684;2022-10-22T15:25:33;3.60;;;1.15;;
55224;SDS011;41091;49.400;8.684;2022-10-22T15:28:01;1.88;;;0.77;;
55224;SDS011;41091;49.400;8.684;2022-10-22T15:30:27;8.70;;;1.20;;
55224;SDS011;41091;49.400;8.684;2022-10-22T15:32:52;6.68;;;1.27;;
55224;SDS011;41091;49.400;8.684;2022-10-22T15:35:17;4.47;;;1.17;;
55224;SDS011;41091;49.400;8.684;2022-10-22T15:37:45;1.80;;;0.60;;
55224;SDS011;41091;49.400;8.684;2022-10-22T15:40:10;3.22;;;0.70;;
55224;SDS011;41091;49.400;8.684;2022-10-22T15:42:36;6.15;;;1.10;;
55224;SDS011;41091;49.400;8.684;2022-10-22T15:45:01;6.95;;;1.25;;
55224;SDS011;41091;49.400;8.684;2022-10-22T15:47:27;2.40;;;0.80;;
55224;SDS011;41091;49.400;8.684;2022-10-22T15:49:55;3.05;;;0.80;;
55224;SDS011;41091;49.400;8.684;2022-10-22T15:52:20;8.57;;;1.30;;
55224;SDS011;41091;49.400;8.684;2022-10-22T15:54:48;3.42;;;1.38;;
55224;SDS011;41091;49.400;8.684;2022-10-22T15:57:15;16.17;;;1.63;;
55224;SDS011;41091;49.400;8.684;2022-10-22T15:59:43;2.15;;;1.40;;
55224;SDS011;41091;49.400;8.684;2022-10-22T16:02:13;7.10;;;1.40;;
55224;SDS011;41091;49.400;8.684;2022-10-22T16:04:40;12.60;;;1.40;;
55224;SDS011;41091;49.400;8.684;2022-10-22T16:07:05;6.03;;;1.55;;
55224;SDS011;41091;49.400;8.684;2022-10-22T16:09:31;5.28;;;1.58;;
55224;SDS011;41091;49.400;8.684;2022-10-22T16:11:58;4.53;;;1.33;;
55224;SDS011;41091;49.400;8.684;2022-10-22T16:14:28;10.80;;;1.70;;
55224;SDS011;41091;49.400;8.684;2022-10-22T16:16:54;3.17;;;1.10;;
55224;SDS011;41091;49.400;8.684;2022-10-22T16:19:20;7.97;;;1.42;;
55224;SDS011;41091;49.400;8.684;2022-10-22T16:21:52;3.60;;;0.80;;
55224;SDS011;41091;49.400;8.684;2022-10-22T16:24:21;6.18;;;0.93;;
55224;SDS011;41091;49.400;8.684;2022-10-22T16:26:48;5.38;;;0.93;;
55224;SDS011;41091;49.400;8.684;2022-10-22T16:29:14;3.60;;;0.95;;
55224;SDS011;41091;49.400;8.684;2022-10-22T16:31:43;1.20;;;0.90;;
55224;SDS011;41091;49.400;8.684;2022-10-22T16:34:11;11.02;;;1.00;;
55224;SDS011;41091;49.400;8.684;2022-10-22T16:39:08;2.38;;;0.88;;
55224;SDS011;41091;49.400;8.684;2022-10-22T16:41:33;2.17;;;1.10;;
55224;SDS011;41091;49.400;8.684;2022-10-22T16:44:00;4.20;;;1.30;;
55224;SDS011;41091;49.400;8.684;2022-10-22T16:46:27;7.15;;;0.98;;
55224;SDS011;41091;49.400;8.684;2022-10-22T16:48:53;2.15;;;0.80;;
55224;SDS011;41091;49.400;8.684;2022-10-22T16:51:19;2.10;;;0.95;;
55224;SDS011;41091;49.400;8.684;2022-10-22T16:53:50;3.65;;;0.95;;
55224;SDS011;41091;49.400;8.684;2022-10-22T16:56:15;3.90;;;1.10;;
55224;SDS011;41091;49.400;8.684;2022-10-22T16:58:45;2.33;;;1.25;;
55224;SDS011;41091;49.400;8.684;2022-10-22T17:01:15;3.67;;;1.60;;
55224;SDS011;41091;49.400;8.684;2022-10-22T17:03:43;2.60;;;1.33;;
55224;SDS011;41091;49.400;8.684;2022-10-22T17:06:11;3.45;;;1.92;;
55224;SDS011;41091;49.400;8.684;2022-10-22T17:08:37;9.25;;;1.75;;
55224;SDS011;41091;49.400;8.684;2022-10-22T17:11:06;3.45;;;2.50;;
55224;SDS011;41091;49.400;8.684;2022-10-22T17:13:36;9.43;;;1.75;;
55224;SDS011;41091;49.400;8.684;2022-10-22T17:16:08;14.63;;;2.88;;